Fidato — PB5970 — position and weather

sailwx.info

Track history (hours):
 
Tides and Currents Weather Stations Pressure Air Temp Water Temp Dewpoint Dewpoint Depression Visibility Wind Speed Wind Dir Waves Ship Positions

Fidato

Last reported at 2017-Oct-18 20:17 UTC. Time now 2017-Oct-19 21:57 UTC.
Position N 50°43' E 007°08'.

Length 135 m; draft 2.5 m.

Type: Ship. MMSI: 244670975.

Date/timePositionNaut miles runAvg speedWind from/ knotsBaromVisibWave heightAir tempDewpointWater temp
2017-Oct-18 20:17N 50°43' E 007°08'2 5.7
2017-Oct-18 19:58N 50°45' E 007°06'4 6.2
2017-Oct-18 19:23N 50°47' E 007°02'4 5.2
2017-Oct-18 18:38N 50°50' E 006°59'1 6.0
2017-Oct-18 18:31N 50°51' E 006°60'3 5.7
2017-Oct-18 17:58N 50°53' E 007°03'2 5.4
2017-Oct-18 17:30N 50°54' E 006°59'3 5.8
2017-Oct-18 17:00N 50°57' E 006°58'10 4.5
2017-Oct-18 14:46N 51°06' E 006°53'4 4.6
2017-Oct-18 13:58N 51°09' E 006°50'1 2.9
2017-Oct-18 13:30N 51°10' E 006°48'2 4.4
2017-Oct-18 13:00N 51°11' E 006°45'3 5.7
2017-Oct-18 12:30N 51°14' E 006°44'2 3.8
2017-Oct-18 12:00N 51°14' E 006°46'9 3.9
2017-Oct-18 09:45N 51°23' E 006°44'2 6.1
2017-Oct-18 09:30N 51°25' E 006°45'3 5.7
2017-Oct-18 09:00N 51°27' E 006°43'2 4.9
2017-Oct-18 08:30N 51°29' E 006°41'2 4.0
2017-Oct-18 08:00N 51°31' E 006°42'3 5.4
2017-Oct-18 07:30N 51°34' E 006°41'3 5.1
2017-Oct-18 07:00N 51°34' E 006°37'3 5.9
2017-Oct-18 06:30N 51°37' E 006°35'3 5.5
2017-Oct-18 06:00N 51°39' E 006°35'3 6.3
2017-Oct-18 05:30N 51°40' E 006°30'3 5.8
2017-Oct-18 05:00N 51°42' E 006°28'2 5.0
2017-Oct-18 04:30N 51°44' E 006°25'3 4.9
2017-Oct-18 04:00N 51°45' E 006°21'3 6.6
2017-Oct-18 03:30N 51°48' E 006°19'0 0.8
2017-Oct-18 03:00N 51°48' E 006°18'0 0.0
2017-Oct-18 02:30N 51°48' E 006°18'0 0.0
2017-Oct-18 02:00N 51°48' E 006°18'0 0.0
2017-Oct-18 01:30N 51°48' E 006°18'0 0.0
2017-Oct-18 01:00N 51°48' E 006°18'0 0.0
2017-Oct-18 00:30N 51°48' E 006°18'0 0.0
2017-Oct-18 00:00N 51°48' E 006°18'0 0.0
2017-Oct-17 23:30N 51°48' E 006°18'0 0.0
2017-Oct-17 23:00N 51°48' E 006°18'0 0.0
2017-Oct-17 22:30N 51°48' E 006°18'0 0.0
2017-Oct-17 22:00N 51°48' E 006°18'0 0.0
2017-Oct-17 21:30N 51°48' E 006°18'0 0.0
2017-Oct-17 21:00N 51°48' E 006°18'2 3.7
2017-Oct-17 20:30N 51°49' E 006°16'3 6.5
2017-Oct-17 20:00N 51°50' E 006°11'3 6.9
2017-Oct-17 19:30N 51°51' E 006°05'4 7.3
2017-Oct-17 19:00N 51°53' E 006°00'2 4.8
2017-Oct-17 18:30N 51°52' E 005°57'3 5.8
2017-Oct-17 18:00N 51°51' E 005°52'3 6.9
2017-Oct-17 17:30N 51°53' E 005°47'4 7.1
2017-Oct-17 16:59N 51°54' E 005°41'4 7.3
2017-Oct-17 16:30N 51°54' E 005°36'4 7.1
2017-Oct-17 16:00N 51°53' E 005°30'6 6.6
2017-Oct-17 15:08N 51°50' E 005°23'2 6.6
2017-Oct-17 14:50N 51°48' E 005°21'9 6.6
2017-Oct-17 13:25N 51°50' E 005°06'3 7.6
2017-Oct-17 12:58N 51°49' E 005°00'4 8.2
2017-Oct-17 12:30N 51°49' E 004°54'4 8.1
2017-Oct-17 12:00N 51°49' E 004°48'4 8.2
2017-Oct-17 11:31N 51°49' E 004°41'4 8.1
2017-Oct-17 11:00N 51°49' E 004°35'3 7.0
2017-Oct-17 10:30N 51°50' E 004°30'4 7.7
2017-Oct-17 10:00N 51°51' E 004°23'3 6.8
2017-Oct-17 09:30N 51°53' E 004°19'0 0.1
2017-Oct-17 09:00N 51°53' E 004°19'0 0.0
2017-Oct-17 08:30N 51°53' E 004°19'0 0.0
2017-Oct-17 08:00N 51°53' E 004°19'0 0.1
2017-Oct-17 07:30N 51°53' E 004°19'0 0.0
2017-Oct-17 07:00N 51°53' E 004°19'0 0.1
2017-Oct-17 06:31N 51°53' E 004°19'0 0.1
2017-Oct-17 06:00N 51°53' E 004°19'0 0.0
2017-Oct-17 05:30N 51°53' E 004°19'0 0.2
2017-Oct-17 05:00N 51°53' E 004°19'2 3.5
2017-Oct-17 04:31N 51°51' E 004°21'5 9.4
2017-Oct-17 04:00N 51°50' E 004°28'4 8.2
2017-Oct-17 03:31N 51°49' E 004°34'3 6.1
2017-Oct-17 03:01N 51°49' E 004°39'0 0.0
2017-Oct-17 02:31N 51°49' E 004°39'0 0.0
2017-Oct-17 02:01N 51°49' E 004°39'0 0.0
2017-Oct-17 01:31N 51°49' E 004°39'0 0.0
2017-Oct-17 01:01N 51°49' E 004°39'0 0.0
2017-Oct-17 00:31N 51°49' E 004°39'0 0.0
2017-Oct-17 00:00N 51°49' E 004°39'0 0.0
2017-Oct-16 23:31N 51°49' E 004°39'0 0.0
2017-Oct-16 23:01N 51°49' E 004°39'0 0.0
2017-Oct-16 22:31N 51°49' E 004°39'0 0.0
2017-Oct-16 22:01N 51°49' E 004°39'0 0.0
2017-Oct-16 21:31N 51°49' E 004°39'0 0.0
2017-Oct-16 21:00N 51°49' E 004°39'0 0.0
2017-Oct-16 20:30N 51°49' E 004°39'0 0.0
2017-Oct-16 20:01N 51°49' E 004°39'0 0.0
2017-Oct-16 19:31N 51°49' E 004°39'0 0.0
2017-Oct-16 19:01N 51°49' E 004°39'0 0.0
2017-Oct-16 18:31N 51°49' E 004°39'0 0.0
2017-Oct-16 18:00N 51°49' E 004°39'0 0.0
2017-Oct-16 17:31N 51°49' E 004°39'0 0.0
2017-Oct-16 17:01N 51°49' E 004°39'0 0.0
2017-Oct-16 16:31N 51°49' E 004°39'0 0.0
2017-Oct-16 16:01N 51°49' E 004°39'0 0.0
2017-Oct-16 15:31N 51°49' E 004°39'0 0.0
2017-Oct-16 15:01N 51°49' E 004°39'0 0.0
2017-Oct-16 14:31N 51°49' E 004°39'0 0.0
2017-Oct-16 13:31N 51°49' E 004°39'0 0.0
2017-Oct-16 13:01N 51°49' E 004°39'0 0.0
2017-Oct-16 12:31N 51°49' E 004°39'0 0.0
2017-Oct-16 12:00N 51°49' E 004°39'0 0.0
2017-Oct-16 11:31N 51°49' E 004°39'0 0.0
2017-Oct-16 11:01N 51°49' E 004°39'0 0.0
2017-Oct-16 10:30N 51°49' E 004°39'0 0.0
2017-Oct-16 10:00N 51°49' E 004°39'0 0.0
2017-Oct-16 09:31N 51°49' E 004°39'0 0.0
2017-Oct-16 09:01N 51°49' E 004°39'3 5.5
2017-Oct-16 08:30N 51°46' E 004°38'4 8.2
2017-Oct-16 07:57N 51°42' E 004°34'4 7.7
2017-Oct-16 07:22N 51°42' E 004°27'1 2.7
2017-Oct-16 06:57N 51°42' E 004°25'0 0.0
2017-Oct-16 06:29N 51°42' E 004°25'0 0.0
2017-Oct-16 06:00N 51°42' E 004°25'0 0.0
2017-Oct-16 05:30N 51°42' E 004°25'0 0.0
2017-Oct-16 05:00N 51°42' E 004°25'0 0.0
2017-Oct-16 04:30N 51°42' E 004°25'0 0.0
2017-Oct-16 04:00N 51°42' E 004°25'0 0.0
2017-Oct-16 03:24N 51°42' E 004°25'0 0.0
2017-Oct-16 02:55N 51°42' E 004°25'0 0.0
2017-Oct-16 02:28N 51°42' E 004°25'0 0.0
2017-Oct-16 01:59N 51°42' E 004°25'0 0.0
2017-Oct-16 01:29N 51°42' E 004°25'0 0.0
2017-Oct-16 00:57N 51°42' E 004°25'0 0.0
2017-Oct-16 00:27N 51°42' E 004°25'0 0.0
2017-Oct-15 23:57N 51°42' E 004°25'0 0.0
2017-Oct-15 23:24N 51°42' E 004°25'0 0.0
2017-Oct-15 22:59N 51°42' E 004°25'0 0.0
2017-Oct-15 22:29N 51°42' E 004°25'0 0.0
2017-Oct-15 21:56N 51°42' E 004°25'0 0.0
2017-Oct-15 21:29N 51°42' E 004°25'0 0.0
2017-Oct-15 20:57N 51°42' E 004°25'0 0.0
2017-Oct-15 20:23N 51°42' E 004°25'0 0.0
2017-Oct-15 19:50N 51°42' E 004°25'0 0.0
2017-Oct-15 19:30N 51°42' E 004°25'0 0.0
2017-Oct-15 19:00N 51°42' E 004°25'0 0.0
2017-Oct-15 18:30N 51°42' E 004°25'0 0.0
2017-Oct-15 18:00N 51°42' E 004°25'0 0.0
2017-Oct-15 17:30N 51°42' E 004°25'0 0.0
2017-Oct-15 17:00N 51°42' E 004°25'11 5.0
2017-Oct-15 14:43N 51°33' E 004°14'6 6.5
2017-Oct-15 13:50N 51°27' E 004°14'1 1.3
2017-Oct-15 13:05N 51°26' E 004°14'1 6.3
2017-Oct-15 13:00N 51°25' E 004°14'4 8.2
2017-Oct-15 12:28N 51°22' E 004°18'0 1.0
2017-Oct-15 12:00N 51°21' E 004°17'0 0.0
2017-Oct-15 11:30N 51°21' E 004°17'0 0.0
2017-Oct-15 11:00N 51°21' E 004°17'0 0.0
2017-Oct-15 10:30N 51°21' E 004°17'0 0.0
2017-Oct-15 10:00N 51°21' E 004°17'0 0.0
2017-Oct-15 09:29N 51°21' E 004°17'0 0.0
2017-Oct-15 09:00N 51°21' E 004°17'0 0.0
2017-Oct-15 08:23N 51°21' E 004°17'0 0.0
2017-Oct-15 08:00N 51°21' E 004°17'0 0.0
2017-Oct-15 07:30N 51°21' E 004°17'0 0.0
2017-Oct-15 07:00N 51°21' E 004°17'0 0.0
2017-Oct-15 06:30N 51°21' E 004°17'0 0.0
2017-Oct-15 05:57N 51°21' E 004°17'0 0.0
2017-Oct-15 05:29N 51°21' E 004°17'0 0.1
2017-Oct-15 04:56N 51°21' E 004°17'0 0.0
2017-Oct-15 04:25N 51°21' E 004°17'1 1.4
2017-Oct-15 04:00N 51°21' E 004°18'3 6.9
2017-Oct-15 03:30N 51°24' E 004°15'3 6.6
2017-Oct-15 03:00N 51°27' E 004°14'1 1.2
2017-Oct-15 02:30N 51°27' E 004°14'0 0.0
2017-Oct-15 01:58N 51°27' E 004°14'0 0.0
2017-Oct-15 01:30N 51°27' E 004°14'0 0.0
2017-Oct-15 00:59N 51°27' E 004°14'0 0.0
2017-Oct-15 00:30N 51°27' E 004°14'0 0.0
2017-Oct-14 23:59N 51°27' E 004°14'0 0.0
2017-Oct-14 23:30N 51°27' E 004°14'0 0.0
2017-Oct-14 23:00N 51°27' E 004°14'0 0.0
2017-Oct-14 22:30N 51°27' E 004°14'0 0.0
2017-Oct-14 21:58N 51°27' E 004°14'0 0.0
2017-Oct-14 21:30N 51°27' E 004°14'0 0.0
2017-Oct-14 21:00N 51°27' E 004°14'0 0.0
2017-Oct-14 20:29N 51°27' E 004°14'0 0.0
2017-Oct-14 19:58N 51°27' E 004°14'0 0.0
2017-Oct-14 19:30N 51°27' E 004°14'0 0.0
2017-Oct-14 19:00N 51°27' E 004°14'0 0.0
2017-Oct-14 18:30N 51°27' E 004°14'0 0.0
2017-Oct-14 18:00N 51°27' E 004°14'0 0.0
2017-Oct-14 17:28N 51°27' E 004°14'0 0.0
2017-Oct-14 17:00N 51°27' E 004°14'1 1.2
2017-Oct-14 16:29N 51°28' E 004°14'5 8.8
2017-Oct-14 15:53N 51°33' E 004°14'6 6.8
2017-Oct-14 14:58N 51°39' E 004°18'5 8.6
2017-Oct-14 14:26N 51°41' E 004°25'0 1.0
2017-Oct-14 14:00N 51°42' E 004°25'4 8.6
2017-Oct-14 13:30N 51°42' E 004°32'4 8.7
2017-Oct-14 13:00N 51°43' E 004°39'4 8.5
2017-Oct-14 12:30N 51°45' E 004°44'4 7.9
2017-Oct-14 12:00N 51°48' E 004°49'4 8.8
2017-Oct-14 11:30N 51°50' E 004°56'10 8.7
2017-Oct-14 10:21N 51°49' E 005°12'3 9.5
2017-Oct-14 10:00N 51°49' E 005°17'5 7.2
2017-Oct-14 09:22N 51°51' E 005°24'5 8.6
2017-Oct-14 08:50N 51°53' E 005°30'3 9.7
2017-Oct-14 08:30N 51°54' E 005°35'5 9.8
2017-Oct-14 08:00N 51°53' E 005°43'5 9.6
2017-Oct-14 07:30N 51°52' E 005°50'4 7.8
2017-Oct-14 07:00N 51°52' E 005°57'3 6.7
2017-Oct-14 06:31N 51°52' E 006°02'5 9.7
2017-Oct-14 06:00N 51°51' E 006°09'5 9.4
2017-Oct-14 05:30N 51°49' E 006°16'5 9.9
2017-Oct-14 05:00N 51°45' E 006°22'4 6.9
2017-Oct-14 04:27N 51°43' E 006°26'4 8.9
2017-Oct-14 04:00N 51°40' E 006°30'4 7.7
2017-Oct-14 03:30N 51°38' E 006°36'2 3.1
2017-Oct-14 03:00N 51°36' E 006°36'0 0.0
2017-Oct-14 02:30N 51°36' E 006°36'0 0.0
2017-Oct-14 02:00N 51°36' E 006°36'0 0.0
2017-Oct-14 01:30N 51°36' E 006°36'0 0.0
2017-Oct-14 01:00N 51°36' E 006°36'0 0.0
2017-Oct-14 00:30N 51°36' E 006°36'0 0.0
2017-Oct-14 00:00N 51°36' E 006°36'0 0.0
2017-Oct-13 23:30N 51°36' E 006°36'0 0.0
2017-Oct-13 23:00N 51°36' E 006°36'0 0.0
2017-Oct-13 22:30N 51°36' E 006°36'0 0.0
2017-Oct-13 22:00N 51°36' E 006°36'0 0.0
2017-Oct-13 21:30N 51°36' E 006°36'0 0.0
2017-Oct-13 21:00N 51°36' E 006°36'0 0.0
2017-Oct-13 20:30N 51°36' E 006°36'0 0.0
2017-Oct-13 20:00N 51°36' E 006°36'0 0.3
2017-Oct-13 19:30N 51°36' E 006°36'3 6.3
2017-Oct-13 19:00N 51°35' E 006°40'4 8.6
2017-Oct-13 18:30N 51°31' E 006°43'3 6.1
2017-Oct-13 18:00N 51°28' E 006°43'5 9.1
2017-Oct-13 17:30N 51°23' E 006°44'6 6.3
2017-Oct-13 16:36N 51°18' E 006°43'111.0
2017-Oct-13 16:30N 51°17' E 006°42'4 8.4
2017-Oct-13 16:00N 51°13' E 006°46'2 4.6
2017-Oct-13 15:30N 51°11' E 006°45'3 6.0
2017-Oct-13 14:59N 51°09' E 006°50'13 7.1
2017-Oct-13 13:07N 50°57' E 006°58'2 9.8
2017-Oct-13 12:57N 50°55' E 006°58'4 8.6
2017-Oct-13 12:28N 50°53' E 007°03'6 7.0
2017-Oct-13 11:40N 50°47' E 007°02'210.5
2017-Oct-13 11:30N 50°46' E 007°05'5 9.5
2017-Oct-13 10:56N 50°42' E 007°10'  
Track history (hours):
 
Tides and Currents Weather Stations Pressure Air Temp Water Temp Dewpoint Dewpoint Depression Visibility Wind Speed Wind Dir Waves Ship Positions

Fidato

Last reported at 2017-Oct-18 20:17 UTC. Time now 2017-Oct-19 21:57 UTC.
Position N 50°43' E 007°08'.

Length 135 m; draft 2.5 m.

Type: Ship. MMSI: 244670975.

Date/timePositionNaut miles runAvg speedWind from/ knotsBaromVisibWave heightAir tempDewpointWater temp
2017-Oct-18 20:17N 50°43' E 007°08'2 5.7
2017-Oct-18 19:58N 50°45' E 007°06'4 6.2
2017-Oct-18 19:23N 50°47' E 007°02'4 5.2
2017-Oct-18 18:38N 50°50' E 006°59'1 6.0
2017-Oct-18 18:31N 50°51' E 006°60'3 5.7
2017-Oct-18 17:58N 50°53' E 007°03'2 5.4
2017-Oct-18 17:30N 50°54' E 006°59'3 5.8
2017-Oct-18 17:00N 50°57' E 006°58'10 4.5
2017-Oct-18 14:46N 51°06' E 006°53'4 4.6
2017-Oct-18 13:58N 51°09' E 006°50'1 2.9
2017-Oct-18 13:30N 51°10' E 006°48'2 4.4
2017-Oct-18 13:00N 51°11' E 006°45'3 5.7
2017-Oct-18 12:30N 51°14' E 006°44'2 3.8
2017-Oct-18 12:00N 51°14' E 006°46'9 3.9
2017-Oct-18 09:45N 51°23' E 006°44'2 6.1
2017-Oct-18 09:30N 51°25' E 006°45'3 5.7
2017-Oct-18 09:00N 51°27' E 006°43'2 4.9
2017-Oct-18 08:30N 51°29' E 006°41'2 4.0
2017-Oct-18 08:00N 51°31' E 006°42'3 5.4
2017-Oct-18 07:30N 51°34' E 006°41'3 5.1
2017-Oct-18 07:00N 51°34' E 006°37'3 5.9
2017-Oct-18 06:30N 51°37' E 006°35'3 5.5
2017-Oct-18 06:00N 51°39' E 006°35'3 6.3
2017-Oct-18 05:30N 51°40' E 006°30'3 5.8
2017-Oct-18 05:00N 51°42' E 006°28'2 5.0
2017-Oct-18 04:30N 51°44' E 006°25'3 4.9
2017-Oct-18 04:00N 51°45' E 006°21'3 6.6
2017-Oct-18 03:30N 51°48' E 006°19'0 0.8
2017-Oct-18 03:00N 51°48' E 006°18'0 0.0
2017-Oct-18 02:30N 51°48' E 006°18'0 0.0
2017-Oct-18 02:00N 51°48' E 006°18'0 0.0
2017-Oct-18 01:30N 51°48' E 006°18'0 0.0
2017-Oct-18 01:00N 51°48' E 006°18'0 0.0
2017-Oct-18 00:30N 51°48' E 006°18'0 0.0
2017-Oct-18 00:00N 51°48' E 006°18'0 0.0
2017-Oct-17 23:30N 51°48' E 006°18'0 0.0
2017-Oct-17 23:00N 51°48' E 006°18'0 0.0
2017-Oct-17 22:30N 51°48' E 006°18'0 0.0
2017-Oct-17 22:00N 51°48' E 006°18'0 0.0
2017-Oct-17 21:30N 51°48' E 006°18'0 0.0
2017-Oct-17 21:00N 51°48' E 006°18'2 3.7
2017-Oct-17 20:30N 51°49' E 006°16'3 6.5
2017-Oct-17 20:00N 51°50' E 006°11'3 6.9
2017-Oct-17 19:30N 51°51' E 006°05'4 7.3
2017-Oct-17 19:00N 51°53' E 006°00'2 4.8
2017-Oct-17 18:30N 51°52' E 005°57'3 5.8
2017-Oct-17 18:00N 51°51' E 005°52'3 6.9
2017-Oct-17 17:30N 51°53' E 005°47'4 7.1
2017-Oct-17 16:59N 51°54' E 005°41'4 7.3
2017-Oct-17 16:30N 51°54' E 005°36'4 7.1
2017-Oct-17 16:00N 51°53' E 005°30'6 6.6
2017-Oct-17 15:08N 51°50' E 005°23'2 6.6
2017-Oct-17 14:50N 51°48' E 005°21'9 6.6
2017-Oct-17 13:25N 51°50' E 005°06'3 7.6
2017-Oct-17 12:58N 51°49' E 005°00'4 8.2
2017-Oct-17 12:30N 51°49' E 004°54'4 8.1
2017-Oct-17 12:00N 51°49' E 004°48'4 8.2
2017-Oct-17 11:31N 51°49' E 004°41'4 8.1
2017-Oct-17 11:00N 51°49' E 004°35'3 7.0
2017-Oct-17 10:30N 51°50' E 004°30'4 7.7
2017-Oct-17 10:00N 51°51' E 004°23'3 6.8
2017-Oct-17 09:30N 51°53' E 004°19'0 0.1
2017-Oct-17 09:00N 51°53' E 004°19'0 0.0
2017-Oct-17 08:30N 51°53' E 004°19'0 0.0
2017-Oct-17 08:00N 51°53' E 004°19'0 0.1
2017-Oct-17 07:30N 51°53' E 004°19'0 0.0
2017-Oct-17 07:00N 51°53' E 004°19'0 0.1
2017-Oct-17 06:31N 51°53' E 004°19'0 0.1
2017-Oct-17 06:00N 51°53' E 004°19'0 0.0
2017-Oct-17 05:30N 51°53' E 004°19'0 0.2
2017-Oct-17 05:00N 51°53' E 004°19'2 3.5
2017-Oct-17 04:31N 51°51' E 004°21'5 9.4
2017-Oct-17 04:00N 51°50' E 004°28'4 8.2
2017-Oct-17 03:31N 51°49' E 004°34'3 6.1
2017-Oct-17 03:01N 51°49' E 004°39'0 0.0
2017-Oct-17 02:31N 51°49' E 004°39'0 0.0
2017-Oct-17 02:01N 51°49' E 004°39'0 0.0
2017-Oct-17 01:31N 51°49' E 004°39'0 0.0
2017-Oct-17 01:01N 51°49' E 004°39'0 0.0
2017-Oct-17 00:31N 51°49' E 004°39'0 0.0
2017-Oct-17 00:00N 51°49' E 004°39'0 0.0
2017-Oct-16 23:31N 51°49' E 004°39'0 0.0
2017-Oct-16 23:01N 51°49' E 004°39'0 0.0
2017-Oct-16 22:31N 51°49' E 004°39'0 0.0
2017-Oct-16 22:01N 51°49' E 004°39'0 0.0
2017-Oct-16 21:31N 51°49' E 004°39'0 0.0
2017-Oct-16 21:00N 51°49' E 004°39'0 0.0
2017-Oct-16 20:30N 51°49' E 004°39'0 0.0
2017-Oct-16 20:01N 51°49' E 004°39'0 0.0
2017-Oct-16 19:31N 51°49' E 004°39'0 0.0
2017-Oct-16 19:01N 51°49' E 004°39'0 0.0
2017-Oct-16 18:31N 51°49' E 004°39'0 0.0
2017-Oct-16 18:00N 51°49' E 004°39'0 0.0
2017-Oct-16 17:31N 51°49' E 004°39'0 0.0
2017-Oct-16 17:01N 51°49' E 004°39'0 0.0
2017-Oct-16 16:31N 51°49' E 004°39'0 0.0
2017-Oct-16 16:01N 51°49' E 004°39'0 0.0
2017-Oct-16 15:31N 51°49' E 004°39'0 0.0
2017-Oct-16 15:01N 51°49' E 004°39'0 0.0
2017-Oct-16 14:31N 51°49' E 004°39'0 0.0
2017-Oct-16 13:31N 51°49' E 004°39'0 0.0
2017-Oct-16 13:01N 51°49' E 004°39'0 0.0
2017-Oct-16 12:31N 51°49' E 004°39'0 0.0
2017-Oct-16 12:00N 51°49' E 004°39'0 0.0
2017-Oct-16 11:31N 51°49' E 004°39'0 0.0
2017-Oct-16 11:01N 51°49' E 004°39'0 0.0
2017-Oct-16 10:30N 51°49' E 004°39'0 0.0
2017-Oct-16 10:00N 51°49' E 004°39'0 0.0
2017-Oct-16 09:31N 51°49' E 004°39'0 0.0
2017-Oct-16 09:01N 51°49' E 004°39'3 5.5
2017-Oct-16 08:30N 51°46' E 004°38'4 8.2
2017-Oct-16 07:57N 51°42' E 004°34'4 7.7
2017-Oct-16 07:22N 51°42' E 004°27'1 2.7
2017-Oct-16 06:57N 51°42' E 004°25'0 0.0
2017-Oct-16 06:29N 51°42' E 004°25'0 0.0
2017-Oct-16 06:00N 51°42' E 004°25'0 0.0
2017-Oct-16 05:30N 51°42' E 004°25'0 0.0
2017-Oct-16 05:00N 51°42' E 004°25'0 0.0
2017-Oct-16 04:30N 51°42' E 004°25'0 0.0
2017-Oct-16 04:00N 51°42' E 004°25'0 0.0
2017-Oct-16 03:24N 51°42' E 004°25'0 0.0
2017-Oct-16 02:55N 51°42' E 004°25'0 0.0
2017-Oct-16 02:28N 51°42' E 004°25'0 0.0
2017-Oct-16 01:59N 51°42' E 004°25'0 0.0
2017-Oct-16 01:29N 51°42' E 004°25'0 0.0
2017-Oct-16 00:57N 51°42' E 004°25'0 0.0
2017-Oct-16 00:27N 51°42' E 004°25'0 0.0
2017-Oct-15 23:57N 51°42' E 004°25'0 0.0
2017-Oct-15 23:24N 51°42' E 004°25'0 0.0
2017-Oct-15 22:59N 51°42' E 004°25'0 0.0
2017-Oct-15 22:29N 51°42' E 004°25'0 0.0
2017-Oct-15 21:56N 51°42' E 004°25'0 0.0
2017-Oct-15 21:29N 51°42' E 004°25'0 0.0
2017-Oct-15 20:57N 51°42' E 004°25'0 0.0
2017-Oct-15 20:23N 51°42' E 004°25'0 0.0
2017-Oct-15 19:50N 51°42' E 004°25'0 0.0
2017-Oct-15 19:30N 51°42' E 004°25'0 0.0
2017-Oct-15 19:00N 51°42' E 004°25'0 0.0
2017-Oct-15 18:30N 51°42' E 004°25'0 0.0
2017-Oct-15 18:00N 51°42' E 004°25'0 0.0
2017-Oct-15 17:30N 51°42' E 004°25'0 0.0
2017-Oct-15 17:00N 51°42' E 004°25'11 5.0
2017-Oct-15 14:43N 51°33' E 004°14'6 6.5
2017-Oct-15 13:50N 51°27' E 004°14'1 1.3
2017-Oct-15 13:05N 51°26' E 004°14'1 6.3
2017-Oct-15 13:00N 51°25' E 004°14'4 8.2
2017-Oct-15 12:28N 51°22' E 004°18'0 1.0
2017-Oct-15 12:00N 51°21' E 004°17'0 0.0
2017-Oct-15 11:30N 51°21' E 004°17'0 0.0
2017-Oct-15 11:00N 51°21' E 004°17'0 0.0
2017-Oct-15 10:30N 51°21' E 004°17'0 0.0
2017-Oct-15 10:00N 51°21' E 004°17'0 0.0
2017-Oct-15 09:29N 51°21' E 004°17'0 0.0
2017-Oct-15 09:00N 51°21' E 004°17'0 0.0
2017-Oct-15 08:23N 51°21' E 004°17'0 0.0
2017-Oct-15 08:00N 51°21' E 004°17'0 0.0
2017-Oct-15 07:30N 51°21' E 004°17'0 0.0
2017-Oct-15 07:00N 51°21' E 004°17'0 0.0
2017-Oct-15 06:30N 51°21' E 004°17'0 0.0
2017-Oct-15 05:57N 51°21' E 004°17'0 0.0
2017-Oct-15 05:29N 51°21' E 004°17'0 0.1
2017-Oct-15 04:56N 51°21' E 004°17'0 0.0
2017-Oct-15 04:25N 51°21' E 004°17'1 1.4
2017-Oct-15 04:00N 51°21' E 004°18'3 6.9
2017-Oct-15 03:30N 51°24' E 004°15'3 6.6
2017-Oct-15 03:00N 51°27' E 004°14'1 1.2
2017-Oct-15 02:30N 51°27' E 004°14'0 0.0
2017-Oct-15 01:58N 51°27' E 004°14'0 0.0
2017-Oct-15 01:30N 51°27' E 004°14'0 0.0
2017-Oct-15 00:59N 51°27' E 004°14'0 0.0
2017-Oct-15 00:30N 51°27' E 004°14'0 0.0
2017-Oct-14 23:59N 51°27' E 004°14'0 0.0
2017-Oct-14 23:30N 51°27' E 004°14'0 0.0
2017-Oct-14 23:00N 51°27' E 004°14'0 0.0
2017-Oct-14 22:30N 51°27' E 004°14'0 0.0
2017-Oct-14 21:58N 51°27' E 004°14'0 0.0
2017-Oct-14 21:30N 51°27' E 004°14'0 0.0
2017-Oct-14 21:00N 51°27' E 004°14'0 0.0
2017-Oct-14 20:29N 51°27' E 004°14'0 0.0
2017-Oct-14 19:58N 51°27' E 004°14'0 0.0
2017-Oct-14 19:30N 51°27' E 004°14'0 0.0
2017-Oct-14 19:00N 51°27' E 004°14'0 0.0
2017-Oct-14 18:30N 51°27' E 004°14'0 0.0
2017-Oct-14 18:00N 51°27' E 004°14'0 0.0
2017-Oct-14 17:28N 51°27' E 004°14'0 0.0
2017-Oct-14 17:00N 51°27' E 004°14'1 1.2
2017-Oct-14 16:29N 51°28' E 004°14'5 8.8
2017-Oct-14 15:53N 51°33' E 004°14'6 6.8
2017-Oct-14 14:58N 51°39' E 004°18'5 8.6
2017-Oct-14 14:26N 51°41' E 004°25'0 1.0
2017-Oct-14 14:00N 51°42' E 004°25'4 8.6
2017-Oct-14 13:30N 51°42' E 004°32'4 8.7
2017-Oct-14 13:00N 51°43' E 004°39'4 8.5
2017-Oct-14 12:30N 51°45' E 004°44'4 7.9
2017-Oct-14 12:00N 51°48' E 004°49'4 8.8
2017-Oct-14 11:30N 51°50' E 004°56'10 8.7
2017-Oct-14 10:21N 51°49' E 005°12'3 9.5
2017-Oct-14 10:00N 51°49' E 005°17'5 7.2
2017-Oct-14 09:22N 51°51' E 005°24'5 8.6
2017-Oct-14 08:50N 51°53' E 005°30'3 9.7
2017-Oct-14 08:30N 51°54' E 005°35'5 9.8
2017-Oct-14 08:00N 51°53' E 005°43'5 9.6
2017-Oct-14 07:30N 51°52' E 005°50'4 7.8
2017-Oct-14 07:00N 51°52' E 005°57'3 6.7
2017-Oct-14 06:31N 51°52' E 006°02'5 9.7
2017-Oct-14 06:00N 51°51' E 006°09'5 9.4
2017-Oct-14 05:30N 51°49' E 006°16'5 9.9
2017-Oct-14 05:00N 51°45' E 006°22'4 6.9
2017-Oct-14 04:27N 51°43' E 006°26'4 8.9
2017-Oct-14 04:00N 51°40' E 006°30'4 7.7
2017-Oct-14 03:30N 51°38' E 006°36'2 3.1
2017-Oct-14 03:00N 51°36' E 006°36'0 0.0
2017-Oct-14 02:30N 51°36' E 006°36'0 0.0
2017-Oct-14 02:00N 51°36' E 006°36'0 0.0
2017-Oct-14 01:30N 51°36' E 006°36'0 0.0
2017-Oct-14 01:00N 51°36' E 006°36'0 0.0
2017-Oct-14 00:30N 51°36' E 006°36'0 0.0
2017-Oct-14 00:00N 51°36' E 006°36'0 0.0
2017-Oct-13 23:30N 51°36' E 006°36'0 0.0
2017-Oct-13 23:00N 51°36' E 006°36'0 0.0
2017-Oct-13 22:30N 51°36' E 006°36'0 0.0
2017-Oct-13 22:00N 51°36' E 006°36'0 0.0
2017-Oct-13 21:30N 51°36' E 006°36'0 0.0
2017-Oct-13 21:00N 51°36' E 006°36'0 0.0
2017-Oct-13 20:30N 51°36' E 006°36'0 0.0
2017-Oct-13 20:00N 51°36' E 006°36'0 0.3
2017-Oct-13 19:30N 51°36' E 006°36'3 6.3
2017-Oct-13 19:00N 51°35' E 006°40'4 8.6
2017-Oct-13 18:30N 51°31' E 006°43'3 6.1
2017-Oct-13 18:00N 51°28' E 006°43'5 9.1
2017-Oct-13 17:30N 51°23' E 006°44'6 6.3
2017-Oct-13 16:36N 51°18' E 006°43'111.0
2017-Oct-13 16:30N 51°17' E 006°42'4 8.4
2017-Oct-13 16:00N 51°13' E 006°46'2 4.6
2017-Oct-13 15:30N 51°11' E 006°45'3 6.0
2017-Oct-13 14:59N 51°09' E 006°50'13 7.1
2017-Oct-13 13:07N 50°57' E 006°58'2 9.8
2017-Oct-13 12:57N 50°55' E 006°58'4 8.6
2017-Oct-13 12:28N 50°53' E 007°03'6 7.0
2017-Oct-13 11:40N 50°47' E 007°02'210.5
2017-Oct-13 11:30N 50°46' E 007°05'5 9.5
2017-Oct-13 10:56N 50°42' E 007°10'  

Dump ship's entire track history